Lunamar — 5BNV2 — position and weather

sailwx.info

Track history (hours):
 
Tides and Currents Weather Stations Pressure Air Temp Water Temp Dewpoint Dewpoint Depression Visibility Wind Speed Wind Dir Waves Ship Positions

Lunamar

Last reported at 2016-Sep-26 13:33 UTC. Time now 2016-Sep-27 00:15 UTC.
Position N 59°39' E 022°59'.

Length 90 m; draft 3.7 m.

Type: Cargo ship. MMSI: 212762000.

Date/timePositionNaut miles runAvg speedWind from/ knotsBaromVisibWave heightAir tempDewpointWater temp
2016-Sep-26 13:33N 59°39' E 022°59'349 8.3
2016-Sep-24 19:21N 55°35' E 015°16'7 8.9
2016-Sep-24 18:33N 55°31' E 015°05'9 9.0
2016-Sep-24 17:33N 55°27' E 014°51'9 8.8
2016-Sep-24 16:33N 55°22' E 014°38'18 8.8
2016-Sep-24 14:33N 55°08' E 014°19'17 8.6
2016-Sep-24 12:33N 54°59' E 013°54'75 8.4
2016-Sep-24 03:33N 54°24' E 011°58'9 8.9
2016-Sep-24 02:33N 54°26' E 011°43'8 8.4
2016-Sep-24 01:33N 54°29' E 011°30'9 8.8
2016-Sep-24 00:33N 54°33' E 011°16'39 7.9
2016-Sep-23 19:33N 54°22' E 010°11'10 5.1
2016-Sep-23 17:33N 54°21' E 009°53'4 4.3
2016-Sep-23 16:33N 54°21' E 009°46'8 7.6
2016-Sep-23 15:28N 54°15' E 009°37'15 7.8
2016-Sep-23 13:33N 54°04' E 009°19'24 5.9
2016-Sep-23 09:33N 53°51' E 008°45'22 7.4
2016-Sep-23 06:33N 53°60' E 008°10'18 9.1
2016-Sep-23 04:33N 53°56' E 007°40'9 9.4
2016-Sep-23 03:33N 53°53' E 007°24'10 9.6
2016-Sep-23 02:33N 53°51' E 007°09'9 9.4
2016-Sep-23 01:33N 53°49' E 006°53'9 9.6
2016-Sep-23 00:33N 53°47' E 006°37'10 9.9
2016-Sep-22 23:33N 53°44' E 006°21'29 9.6
2016-Sep-22 20:33N 53°35' E 005°35'60 7.5
2016-Sep-22 12:32N 52°56' E 004°18'72 9.0
2016-Sep-22 04:33N 51°53' E 003°22'9 9.6
2016-Sep-22 03:33N 51°44' E 003°16'26 8.8
2016-Sep-22 00:33N 51°23' E 003°43'9 8.9
2016-Sep-21 23:33N 51°24' E 003°57'9 8.5
2016-Sep-21 22:33N 51°24' E 004°11'11 3.6
2016-Sep-21 19:33N 51°15' E 004°22'2 0.5
2016-Sep-21 16:33N 51°15' E 004°24'0 0.0
2016-Sep-21 09:33N 51°15' E 004°24'0 0.0
2016-Sep-21 08:33N 51°15' E 004°24'0 0.0
2016-Sep-21 05:33N 51°15' E 004°24'0 0.0
2016-Sep-21 03:33N 51°15' E 004°24'0 0.0
2016-Sep-21 02:33N 51°15' E 004°24'0 0.0
2016-Sep-20 17:33N 51°15' E 004°24'0 0.0
2016-Sep-20 14:33N 51°15' E 004°24'0 0.0
2016-Sep-20 13:33N 51°15' E 004°24'0 0.0
2016-Sep-20 10:33N 51°15' E 004°24'0 0.0
2016-Sep-20 08:33N 51°15' E 004°24'0 0.0
2016-Sep-20 07:33N 51°15' E 004°24'1 1.1
2016-Sep-20 06:33N 51°15' E 004°22'20 4.9
2016-Sep-20 02:33N 51°21' E 003°52'3110.3
2016-Sep-19 23:33N 51°42' E 003°16'131 9.3
2016-Sep-19 09:31N 53°34' E 005°06'17 8.7
2016-Sep-19 07:33N 53°39' E 005°34'9 9.1
2016-Sep-19 06:33N 53°43' E 005°48'3310.9
2016-Sep-19 03:33N 53°53' E 006°41'1111.2
2016-Sep-19 02:33N 53°56' E 006°59'2110.4
2016-Sep-19 00:33N 54°01' E 007°33'45 9.0
2016-Sep-18 19:33N 53°51' E 008°47'57 6.3
2016-Sep-18 10:32N 54°22' E 010°09'71 8.9
2016-Sep-18 02:33N 54°29' E 012°11'10 9.9
2016-Sep-18 01:33N 54°38' E 012°17'30 9.7
2016-Sep-17 22:31N 54°52' E 013°03'30 9.3
2016-Sep-17 19:16N 55°03' E 013°52'52 9.1
2016-Sep-17 13:33N 55°36' E 015°03'  
Track history (hours):
 
Tides and Currents Weather Stations Pressure Air Temp Water Temp Dewpoint Dewpoint Depression Visibility Wind Speed Wind Dir Waves Ship Positions

Lunamar

Last reported at 2016-Sep-26 13:33 UTC. Time now 2016-Sep-27 00:15 UTC.
Position N 59°39' E 022°59'.

Length 90 m; draft 3.7 m.

Type: Cargo ship. MMSI: 212762000.

Date/timePositionNaut miles runAvg speedWind from/ knotsBaromVisibWave heightAir tempDewpointWater temp
2016-Sep-26 13:33N 59°39' E 022°59'349 8.3
2016-Sep-24 19:21N 55°35' E 015°16'7 8.9
2016-Sep-24 18:33N 55°31' E 015°05'9 9.0
2016-Sep-24 17:33N 55°27' E 014°51'9 8.8
2016-Sep-24 16:33N 55°22' E 014°38'18 8.8
2016-Sep-24 14:33N 55°08' E 014°19'17 8.6
2016-Sep-24 12:33N 54°59' E 013°54'75 8.4
2016-Sep-24 03:33N 54°24' E 011°58'9 8.9
2016-Sep-24 02:33N 54°26' E 011°43'8 8.4
2016-Sep-24 01:33N 54°29' E 011°30'9 8.8
2016-Sep-24 00:33N 54°33' E 011°16'39 7.9
2016-Sep-23 19:33N 54°22' E 010°11'10 5.1
2016-Sep-23 17:33N 54°21' E 009°53'4 4.3
2016-Sep-23 16:33N 54°21' E 009°46'8 7.6
2016-Sep-23 15:28N 54°15' E 009°37'15 7.8
2016-Sep-23 13:33N 54°04' E 009°19'24 5.9
2016-Sep-23 09:33N 53°51' E 008°45'22 7.4
2016-Sep-23 06:33N 53°60' E 008°10'18 9.1
2016-Sep-23 04:33N 53°56' E 007°40'9 9.4
2016-Sep-23 03:33N 53°53' E 007°24'10 9.6
2016-Sep-23 02:33N 53°51' E 007°09'9 9.4
2016-Sep-23 01:33N 53°49' E 006°53'9 9.6
2016-Sep-23 00:33N 53°47' E 006°37'10 9.9
2016-Sep-22 23:33N 53°44' E 006°21'29 9.6
2016-Sep-22 20:33N 53°35' E 005°35'60 7.5
2016-Sep-22 12:32N 52°56' E 004°18'72 9.0
2016-Sep-22 04:33N 51°53' E 003°22'9 9.6
2016-Sep-22 03:33N 51°44' E 003°16'26 8.8
2016-Sep-22 00:33N 51°23' E 003°43'9 8.9
2016-Sep-21 23:33N 51°24' E 003°57'9 8.5
2016-Sep-21 22:33N 51°24' E 004°11'11 3.6
2016-Sep-21 19:33N 51°15' E 004°22'2 0.5
2016-Sep-21 16:33N 51°15' E 004°24'0 0.0
2016-Sep-21 09:33N 51°15' E 004°24'0 0.0
2016-Sep-21 08:33N 51°15' E 004°24'0 0.0
2016-Sep-21 05:33N 51°15' E 004°24'0 0.0
2016-Sep-21 03:33N 51°15' E 004°24'0 0.0
2016-Sep-21 02:33N 51°15' E 004°24'0 0.0
2016-Sep-20 17:33N 51°15' E 004°24'0 0.0
2016-Sep-20 14:33N 51°15' E 004°24'0 0.0
2016-Sep-20 13:33N 51°15' E 004°24'0 0.0
2016-Sep-20 10:33N 51°15' E 004°24'0 0.0
2016-Sep-20 08:33N 51°15' E 004°24'0 0.0
2016-Sep-20 07:33N 51°15' E 004°24'1 1.1
2016-Sep-20 06:33N 51°15' E 004°22'20 4.9
2016-Sep-20 02:33N 51°21' E 003°52'3110.3
2016-Sep-19 23:33N 51°42' E 003°16'131 9.3
2016-Sep-19 09:31N 53°34' E 005°06'17 8.7
2016-Sep-19 07:33N 53°39' E 005°34'9 9.1
2016-Sep-19 06:33N 53°43' E 005°48'3310.9
2016-Sep-19 03:33N 53°53' E 006°41'1111.2
2016-Sep-19 02:33N 53°56' E 006°59'2110.4
2016-Sep-19 00:33N 54°01' E 007°33'45 9.0
2016-Sep-18 19:33N 53°51' E 008°47'57 6.3
2016-Sep-18 10:32N 54°22' E 010°09'71 8.9
2016-Sep-18 02:33N 54°29' E 012°11'10 9.9
2016-Sep-18 01:33N 54°38' E 012°17'30 9.7
2016-Sep-17 22:31N 54°52' E 013°03'30 9.3
2016-Sep-17 19:16N 55°03' E 013°52'52 9.1
2016-Sep-17 13:33N 55°36' E 015°03'  

Dump ship's entire track history